Yellow Mule RAWS (NWS)

Elevation
9200ft
Aggregated by Synoptic Data
Date/Time Wind Direction Wind Speed knots Wind Gust knots RH % Accumulated Precip Inches Air Temp Fahrenheit
2024-04-24 13:04 S 11 18 24 1.39 48
2024-04-24 12:04 SW 9 14 26 1.39 47
2024-04-24 11:04 SW 10 16 24 1.39 48
2024-04-24 10:04 SSW 5 12 22 1.39 51
2024-04-24 09:04 SSW 6 11 27 1.39 45
2024-04-24 08:04 SSW 8 12 32 1.39 38
2024-04-24 07:04 SSW 6 9 35 1.39 35
2024-04-24 06:04 S 5 10 39 1.39 34
2024-04-24 05:04 SSW 8 10 36 1.39 35
2024-04-24 04:04 SSW 10 12 37 1.39 36
2024-04-24 03:04 S 7 9 39 1.39 33
2024-04-24 02:04 SSE 3 6 40 1.39 32
2024-04-24 01:04 S 6 10 39 1.39 33
2024-04-24 00:04 SSE 4 8 37 1.39 34
2024-04-23 23:04 S 3 6 38 1.39 33
2024-04-23 22:04 SSW 6 8 37 1.39 36
2024-04-23 21:04 SSW 4 7 34 1.39 36
2024-04-23 20:04 SSW 6 11 31 1.39 38
2024-04-23 19:04 SW 8 17 24 1.39 42
2024-04-23 18:04 SSW 8 22 26 1.39 43
2024-04-23 17:04 SSW 10 20 26 1.39 43
2024-04-23 16:04 SSW 12 19 25 1.39 42
2024-04-23 15:04 S 7 17 24 1.39 43
2024-04-23 14:04 SSW 8 18 22 1.39 42
2024-04-23 13:04 SW 8 14 25 1.39 41
2024-04-23 12:04 ENE 3 11 24 1.39 45
2024-04-23 11:04 ENE 6 10 29 1.39 41
2024-04-23 10:04 E 3 6 28 1.39 43
2024-04-23 09:04 W 2 7 29 1.39 39
2024-04-23 08:04 ENE 3 4 38 1.39 28
2024-04-23 07:04 NNE 2 3 40 1.39 24
2024-04-23 06:04 N 2 4 44 1.39 21
2024-04-23 05:04 N 3 4 45 1.39 20
2024-04-23 04:04 WNW 2 6 44 1.39 20
2024-04-23 03:04 N 3 6 40 1.39 22
2024-04-23 02:04 N 4 7 40 1.39 23
2024-04-23 01:04 NNE 3 7 38 1.39 23
2024-04-23 00:04 NNE 3 9 41 1.39 23
2024-04-22 23:04 NNE 4 10 46 1.39 24
2024-04-22 22:04 NNE 3 15 43 1.39 25
2024-04-22 21:04 N 8 12 31 1.39 28
2024-04-22 20:04 WNW 7 12 25 1.39 31
2024-04-22 19:04 WSW 9 18 25 1.39 35
2024-04-22 18:04 WSW 13 20 25 1.39 36
2024-04-22 17:04 WSW 12 22 23 1.39 37
2024-04-22 16:04 SW 12 30 22 1.39 37
2024-04-22 15:04 SSW 20 30 21 1.39 35
2024-04-22 14:04 SSW 16 24 29 1.39 34
2024-04-22 13:04 SSW 12 20 27 1.39 35